Time;durP1;ratioP1;P1;durP2;ratioP2;P2;SDS_P1;SDS_P2;PMS_P1;PMS_P2;Temp;Humidity;BMP_temperature;BMP_pressure;BME280_temperature;BME280_humidity;BME280_pressure;Samples;Min_cycle;Max_cycle;Signal;HPM_P1;HPM_P2
2023/12/22 00:01:17;;;;;;;0.83;0.20;;;;;;;-142.06;100.00;64312.41;5035912;28;20197;-81
2023/12/22 00:03:45;;;;;;;1.17;0.30;;;;;;;-142.06;100.00;64312.41;5019801;28;20202;-82
2023/12/22 00:06:12;;;;;;;1.70;0.30;;;;;;;-142.06;100.00;64312.41;5017527;28;20288;-79
2023/12/22 00:08:39;;;;;;;0.27;0.20;;;;;;;-142.06;100.00;64312.41;5053316;28;20190;-80
2023/12/22 00:11:06;;;;;;;0.23;0.20;;;;;;;-142.06;100.00;64312.41;5035011;28;20224;-79
2023/12/22 00:13:33;;;;;;;0.97;0.20;;;;;;;-142.06;100.00;64312.41;5052198;28;20194;-80
2023/12/22 00:16:01;;;;;;;0.20;0.20;;;;;;;-142.06;100.00;64312.41;5049567;28;20208;-80
2023/12/22 00:18:28;;;;;;;0.97;0.30;;;;;;;-142.06;100.00;64312.41;5041313;28;20197;-78
2023/12/22 00:20:55;;;;;;;1.17;0.53;;;;;;;-142.06;100.00;64312.41;5049529;28;20186;-79
2023/12/22 00:23:23;;;;;;;0.27;0.20;;;;;;;-142.06;100.00;64312.41;5035305;28;20271;-79
2023/12/22 00:25:49;;;;;;;1.33;0.27;;;;;;;-142.06;100.00;64312.41;5052434;28;20197;-80
2023/12/22 00:28:16;;;;;;;1.43;0.30;;;;;;;-142.06;100.00;64312.41;5051952;28;20280;-84
2023/12/22 00:30:43;;;;;;;1.57;0.27;;;;;;;-142.06;100.00;64312.41;5018988;28;20293;-80
2023/12/22 00:33:10;;;;;;;0.60;0.30;;;;;;;-142.06;100.00;64312.41;5052009;28;20202;-81
2023/12/22 00:35:37;;;;;;;0.57;0.20;;;;;;;-142.06;100.00;64312.41;5044930;28;20294;-78
2023/12/22 00:38:04;;;;;;;0.83;0.20;;;;;;;-142.06;100.00;64312.41;5058085;28;20224;-79
2023/12/22 00:40:31;;;;;;;0.93;0.20;;;;;;;-142.06;100.00;64312.41;5028429;28;20225;-82
2023/12/22 00:42:58;;;;;;;0.87;0.20;;;;;;;-142.06;100.00;64312.41;5035625;28;20198;-79
2023/12/22 00:45:25;;;;;;;0.53;0.40;;;;;;;-142.06;100.00;64312.41;5042176;28;20197;-79
2023/12/22 00:47:52;;;;;;;2.13;0.40;;;;;;;-142.06;100.00;64312.41;5024686;28;20205;-81
2023/12/22 00:50:19;;;;;;;1.73;0.30;;;;;;;-142.06;100.00;64312.41;5033802;28;20194;-80
2023/12/22 00:52:46;;;;;;;0.60;0.30;;;;;;;-142.06;100.00;64312.41;5037615;28;20202;-80
2023/12/22 00:55:13;;;;;;;2.43;0.40;;;;;;;-142.06;100.00;64312.41;5022547;28;20208;-79
2023/12/22 00:57:40;;;;;;;1.40;0.30;;;;;;;-142.06;100.00;64312.41;5033849;28;20213;-79
2023/12/22 01:00:10;;;;;;;0.53;0.30;;;;;;;-142.06;100.00;64312.41;5046028;28;20209;-78
2023/12/22 01:02:38;;;;;;;1.97;0.40;;;;;;;-142.06;100.00;64312.41;5057807;28;20217;-80
2023/12/22 01:05:05;;;;;;;1.03;0.30;;;;;;;-142.06;100.00;64312.41;5047507;28;20193;-80
2023/12/22 01:07:32;;;;;;;1.57;0.40;;;;;;;-142.06;100.00;64312.41;5051280;28;20202;-80
2023/12/22 01:10:03;;;;;;;1.77;0.40;;;;;;;-142.06;100.00;64312.41;5036398;28;20197;-80
2023/12/22 01:12:30;;;;;;;0.40;0.20;;;;;;;-142.06;100.00;64312.41;5052129;28;20213;-78
2023/12/22 01:14:57;;;;;;;1.83;0.40;;;;;;;-142.06;100.00;64312.41;5051880;28;20194;-79
2023/12/22 01:17:24;;;;;;;1.63;0.30;;;;;;;-142.06;100.00;64312.41;5033171;28;20307;-79
2023/12/22 01:19:51;;;;;;;1.37;0.30;;;;;;;-142.06;100.00;64312.41;5051959;28;20295;-78
2023/12/22 01:22:18;;;;;;;0.20;0.20;;;;;;;-142.06;100.00;64312.41;5051361;28;20190;-79
2023/12/22 01:24:45;;;;;;;1.80;0.30;;;;;;;-142.06;100.00;64312.41;5049777;28;20221;-81
2023/12/22 01:27:12;;;;;;;1.03;0.20;;;;;;;-142.06;100.00;64312.41;5042068;28;20218;-79
2023/12/22 01:29:39;;;;;;;0.40;0.30;;;;;;;-142.06;100.00;64312.41;5037827;28;20197;-79
2023/12/22 01:32:06;;;;;;;1.43;0.30;;;;;;;-142.06;100.00;64312.41;5062454;28;20201;-80
2023/12/22 01:34:33;;;;;;;0.90;0.27;;;;;;;-142.06;100.00;64312.41;5038875;28;20192;-80
2023/12/22 01:37:00;;;;;;;0.90;0.10;;;;;;;-142.06;100.00;64312.41;5053217;28;20234;-78
2023/12/22 01:39:27;;;;;;;0.13;0.10;;;;;;;-142.06;100.00;64312.41;5060274;28;20197;-79
2023/12/22 01:41:53;;;;;;;0.60;0.17;;;;;;;-142.06;100.00;64312.41;5057679;28;20189;-79
2023/12/22 01:44:20;;;;;;;0.47;0.20;;;;;;;-142.06;100.00;64312.41;5039742;28;20750;-80
2023/12/22 01:46:47;;;;;;;0.40;0.30;;;;;;;-142.06;100.00;64312.41;5040187;28;20255;-80
2023/12/22 01:49:14;;;;;;;1.07;0.30;;;;;;;-142.06;100.00;64312.41;5044337;28;20201;-80
2023/12/22 01:51:41;;;;;;;0.33;0.10;;;;;;;-142.06;100.00;64312.41;5052395;28;20246;-79
2023/12/22 01:54:09;;;;;;;0.33;0.17;;;;;;;-142.06;100.00;64312.41;5039266;28;20239;-78
2023/12/22 01:56:36;;;;;;;0.80;0.30;;;;;;;-142.06;100.00;64312.41;5051142;28;20684;-80
2023/12/22 01:59:03;;;;;;;0.63;0.20;;;;;;;-142.06;100.00;64312.41;5042403;28;20197;-79
2023/12/22 02:01:31;;;;;;;1.23;0.20;;;;;;;-142.06;100.00;64312.41;5053750;28;20190;-79
2023/12/22 02:03:59;;;;;;;0.73;0.20;;;;;;;-142.06;100.00;64312.41;5036294;28;20316;-78
2023/12/22 02:06:27;;;;;;;1.03;0.30;;;;;;;-142.06;100.00;64312.41;5036461;28;20292;-80
2023/12/22 02:08:54;;;;;;;0.20;0.20;;;;;;;-142.06;100.00;64312.41;5050257;28;20194;-79
2023/12/22 02:11:20;;;;;;;1.43;0.20;;;;;;;-142.06;100.00;64312.41;5037778;28;20288;-81
2023/12/22 02:13:47;;;;;;;1.07;0.47;;;;;;;-142.06;100.00;64312.41;5037687;28;20205;-80
2023/12/22 02:16:39;;;;;;;0.50;0.20;;;;;;;-142.06;100.00;64312.41;5058449;28;20185;-80
2023/12/22 02:19:26;;;;;;;1.03;0.20;;;;;;;-142.06;100.00;64312.41;5039374;28;20276;-78
2023/12/22 02:22:04;;;;;;;1.23;0.30;;;;;;;-142.06;100.00;64312.41;5048756;28;20251;-80
2023/12/22 02:24:35;;;;;;;0.30;0.20;;;;;;;-142.06;100.00;64312.41;5041341;28;20213;-79
2023/12/22 02:27:06;;;;;;;0.20;0.20;;;;;;;-142.06;100.00;64312.41;5051051;28;20197;-79
2023/12/22 02:29:36;;;;;;;0.40;0.20;;;;;;;-142.06;100.00;64312.41;5037705;28;20201;-79
2023/12/22 02:32:09;;;;;;;0.50;0.27;;;;;;;-142.06;100.00;64312.41;5052256;28;20194;-80
2023/12/22 02:34:37;;;;;;;0.30;0.20;;;;;;;-142.06;100.00;64312.41;5040983;28;20231;-80
2023/12/22 02:37:07;;;;;;;0.43;0.30;;;;;;;-142.06;100.00;64312.41;5058929;28;20258;-79
2023/12/22 02:39:35;;;;;;;1.17;0.40;;;;;;;-142.06;100.00;64312.41;5068018;28;20202;-81
2023/12/22 02:42:04;;;;;;;0.30;0.30;;;;;;;-142.06;100.00;64312.41;5049800;28;20197;-79
2023/12/22 02:44:31;;;;;;;1.80;0.50;;;;;;;-142.06;100.00;64312.41;5037315;28;20201;-80
2023/12/22 02:46:58;;;;;;;1.00;0.30;;;;;;;-142.06;100.00;64312.41;5037154;28;20259;-79
2023/12/22 02:49:25;;;;;;;1.13;0.33;;;;;;;-142.06;100.00;64312.41;5036655;28;20198;-84
2023/12/22 02:51:52;;;;;;;0.57;0.30;;;;;;;-142.06;100.00;64312.41;5054649;28;20186;-79
2023/12/22 02:54:18;;;;;;;0.60;0.27;;;;;;;-142.06;100.00;64312.41;5053784;28;20200;-78
2023/12/22 02:56:46;;;;;;;1.00;0.40;;;;;;;-142.06;100.00;64312.41;5038454;28;20221;-80
2023/12/22 02:59:13;;;;;;;1.77;0.50;;;;;;;-142.06;100.00;64312.41;5056151;28;20244;-79
2023/12/22 03:01:40;;;;;;;1.03;0.43;;;;;;;-142.06;100.00;64312.41;5035747;28;20685;-78
2023/12/22 03:04:07;;;;;;;1.97;0.40;;;;;;;-142.06;100.00;64312.41;5036624;28;20198;-78
2023/12/22 03:06:34;;;;;;;2.00;0.40;;;;;;;-142.06;100.00;64312.41;5052140;28;20200;-79
2023/12/22 03:09:02;;;;;;;0.90;0.40;;;;;;;-142.06;100.00;64312.41;5039215;28;20666;-79
2023/12/22 03:11:29;;;;;;;0.90;0.33;;;;;;;-142.06;100.00;64312.41;5050519;28;20201;-82
2023/12/22 03:13:56;;;;;;;1.20;0.40;;;;;;;-142.06;100.00;64312.41;5054341;28;20190;-80
2023/12/22 03:16:23;;;;;;;1.27;0.50;;;;;;;-142.06;100.00;64312.41;5034353;28;20190;-78
2023/12/22 03:18:49;;;;;;;1.33;0.40;;;;;;;-142.06;100.00;64312.41;5051287;28;20218;-79
2023/12/22 03:21:18;;;;;;;1.53;0.50;;;;;;;-142.06;100.00;64312.41;5054391;28;20189;-79
2023/12/22 03:23:45;;;;;;;0.90;0.50;;;;;;;-142.06;100.00;64312.41;5056824;28;20219;-79
2023/12/22 03:26:12;;;;;;;0.33;0.30;;;;;;;-142.06;100.00;64312.41;5036303;28;20279;-79
2023/12/22 03:28:39;;;;;;;1.43;0.50;;;;;;;-142.06;100.00;64312.41;5058009;28;20201;-79
2023/12/22 03:31:07;;;;;;;0.97;0.40;;;;;;;-142.06;100.00;64312.41;5057020;28;20207;-77
2023/12/22 03:33:34;;;;;;;0.63;0.30;;;;;;;-142.06;100.00;64312.41;5039257;28;20201;-80
2023/12/22 03:36:01;;;;;;;1.33;0.43;;;;;;;-142.06;100.00;64312.41;5056482;28;20229;-79
2023/12/22 03:38:27;;;;;;;1.33;0.30;;;;;;;-142.06;100.00;64312.41;5020040;28;20236;-83
2023/12/22 03:40:54;;;;;;;2.40;0.80;;;;;;;-142.06;100.00;64312.41;5035011;28;20198;-81
2023/12/22 03:43:21;;;;;;;1.73;0.40;;;;;;;-142.06;100.00;64312.41;5049576;28;20205;-82
2023/12/22 03:45:48;;;;;;;2.03;0.50;;;;;;;-142.06;100.00;64312.41;5014667;28;20198;-82
2023/12/22 03:48:15;;;;;;;0.97;0.40;;;;;;;-142.06;100.00;64312.41;5031503;28;20201;-80
2023/12/22 03:50:42;;;;;;;2.53;0.40;;;;;;;-142.06;100.00;64312.41;5022971;28;20205;-79
2023/12/22 03:53:09;;;;;;;2.47;0.50;;;;;;;-142.06;100.00;64312.41;5054513;28;20201;-83
2023/12/22 03:55:35;;;;;;;1.53;0.40;;;;;;;-142.06;100.00;64312.41;5050332;28;20202;-81
2023/12/22 03:58:04;;;;;;;1.63;0.40;;;;;;;-142.06;100.00;64312.41;5051675;28;20225;-80
2023/12/22 04:00:31;;;;;;;1.87;0.50;;;;;;;-142.06;100.00;64312.41;5050780;28;20201;-79
2023/12/22 04:02:58;;;;;;;1.43;0.50;;;;;;;-142.06;100.00;64312.41;5055201;28;20189;-80
2023/12/22 04:05:25;;;;;;;0.87;0.40;;;;;;;-142.06;100.00;64312.41;5033897;28;20743;-81
2023/12/22 04:07:52;;;;;;;0.90;0.40;;;;;;;-142.06;100.00;64312.41;5041414;28;20186;-79
2023/12/22 04:10:19;;;;;;;2.13;0.33;;;;;;;-142.06;100.00;64312.41;5043161;28;20193;-82
2023/12/22 04:12:46;;;;;;;0.90;0.50;;;;;;;-142.06;100.00;64312.41;5047808;28;20210;-78
2023/12/22 04:15:13;;;;;;;1.37;0.40;;;;;;;-142.06;100.00;64312.41;5030412;28;20205;-80
2023/12/22 04:17:39;;;;;;;0.77;0.40;;;;;;;-142.06;100.00;64312.41;5048720;28;20832;-82
2023/12/22 04:20:07;;;;;;;0.50;0.37;;;;;;;-142.06;100.00;64312.41;5059978;28;20239;-80
2023/12/22 04:22:34;;;;;;;0.83;0.30;;;;;;;-142.06;100.00;64312.41;5054524;28;20198;-82
2023/12/22 04:25:01;;;;;;;0.83;0.53;;;;;;;-142.06;100.00;64312.41;5035720;28;20234;-80
2023/12/22 04:27:28;;;;;;;3.13;0.60;;;;;;;-142.06;100.00;64312.41;5057792;28;20207;-82
2023/12/22 04:29:55;;;;;;;3.40;0.50;;;;;;;-142.06;100.00;64312.41;5066353;28;20200;-80
2023/12/22 04:32:23;;;;;;;2.20;0.50;;;;;;;-142.06;100.00;64312.41;5045708;28;20217;-81
2023/12/22 04:34:50;;;;;;;1.53;0.50;;;;;;;-142.06;100.00;64312.41;5051337;28;20271;-79
2023/12/22 04:37:17;;;;;;;1.27;0.50;;;;;;;-142.06;100.00;64312.41;5064714;28;20237;-81
2023/12/22 04:39:43;;;;;;;0.53;0.30;;;;;;;-142.06;100.00;64312.41;5037964;28;20286;-81
2023/12/22 04:42:10;;;;;;;1.57;0.50;;;;;;;-142.06;100.00;64312.41;5051866;28;20247;-80
2023/12/22 04:44:37;;;;;;;1.03;0.57;;;;;;;-142.06;100.00;64312.41;5057204;28;20197;-81
2023/12/22 04:47:04;;;;;;;1.53;0.60;;;;;;;-142.06;100.00;64312.41;5060965;28;20192;-79
2023/12/22 04:49:31;;;;;;;3.03;0.53;;;;;;;-142.06;100.00;64312.41;5033024;28;20205;-81
2023/12/22 04:51:58;;;;;;;3.13;0.67;;;;;;;-142.06;100.00;64312.41;5062180;28;20189;-80
2023/12/22 04:54:27;;;;;;;1.80;0.60;;;;;;;-142.06;100.00;64312.41;5052972;28;20197;-80
2023/12/22 04:56:54;;;;;;;2.13;0.50;;;;;;;-142.06;100.00;64312.41;5044689;28;20201;-80
2023/12/22 04:59:21;;;;;;;3.80;0.50;;;;;;;-142.06;100.00;64312.41;5031260;28;20228;-79
2023/12/22 05:01:48;;;;;;;1.47;0.50;;;;;;;-142.06;100.00;64312.41;5057651;28;20189;-79
2023/12/22 05:04:15;;;;;;;1.37;0.63;;;;;;;-142.06;100.00;64312.41;5055333;28;20265;-80
2023/12/22 05:06:42;;;;;;;1.67;0.50;;;;;;;-142.06;100.00;64312.41;5036200;28;20205;-79
2023/12/22 05:09:09;;;;;;;1.73;0.50;;;;;;;-142.06;100.00;64312.41;5052231;28;20250;-81
2023/12/22 05:11:36;;;;;;;2.23;0.60;;;;;;;-142.06;100.00;64312.41;5020326;28;20189;-81
2023/12/22 05:14:02;;;;;;;2.37;0.50;;;;;;;-142.06;100.00;64312.41;5061958;28;20197;-80
2023/12/22 05:16:31;;;;;;;1.90;0.53;;;;;;;-142.06;100.00;64312.41;5051509;28;20188;-80
2023/12/22 05:18:58;;;;;;;2.00;0.60;;;;;;;-142.06;100.00;64312.41;5037658;28;20247;-80
2023/12/22 05:21:25;;;;;;;2.40;0.80;;;;;;;-142.06;100.00;64312.41;5040294;28;20213;-80
2023/12/22 05:23:52;;;;;;;2.20;0.70;;;;;;;-142.06;100.00;64312.41;5058733;28;20271;-80
2023/12/22 05:26:20;;;;;;;3.57;0.73;;;;;;;-142.06;100.00;64312.41;5065602;28;20197;-81
2023/12/22 05:28:49;;;;;;;1.67;0.60;;;;;;;-142.06;100.00;64312.41;5051335;28;20197;-78
2023/12/22 05:31:16;;;;;;;3.43;0.70;;;;;;;-142.06;100.00;64312.41;5042064;28;20254;-79
2023/12/22 05:33:43;;;;;;;1.17;0.60;;;;;;;-142.06;100.00;64312.41;5048694;28;20271;-78
2023/12/22 05:36:10;;;;;;;1.37;0.50;;;;;;;-142.06;100.00;64312.41;5028516;28;20234;-79
2023/12/22 05:38:38;;;;;;;2.27;0.63;;;;;;;-142.06;100.00;64312.41;5060345;28;20215;-81
2023/12/22 05:41:08;;;;;;;1.93;0.77;;;;;;;-142.06;100.00;64312.41;5036853;28;20209;-81
2023/12/22 05:43:35;;;;;;;2.87;0.80;;;;;;;-142.06;100.00;64312.41;5039275;28;20213;-79
2023/12/22 05:46:02;;;;;;;5.77;0.90;;;;;;;-142.06;100.00;64312.41;5056894;28;20190;-78
2023/12/22 05:48:28;;;;;;;2.47;0.63;;;;;;;-142.06;100.00;64312.41;5051117;28;20249;-78
2023/12/22 05:50:58;;;;;;;3.23;0.70;;;;;;;-142.06;100.00;64312.41;5053036;28;20225;-80
2023/12/22 05:53:25;;;;;;;1.73;0.70;;;;;;;-142.06;100.00;64312.41;5051664;28;20224;-80
2023/12/22 05:55:52;;;;;;;3.83;0.83;;;;;;;-142.06;100.00;64312.41;5055731;28;20181;-79
2023/12/22 05:58:20;;;;;;;2.90;0.77;;;;;;;-142.06;100.00;64312.41;5057660;28;20248;-78
2023/12/22 06:00:47;;;;;;;3.40;1.07;;;;;;;-142.06;100.00;64312.41;5021877;28;20197;-81
2023/12/22 06:03:14;;;;;;;2.10;0.70;;;;;;;-142.06;100.00;64312.41;5039504;28;20273;-79
2023/12/22 06:05:41;;;;;;;2.57;0.70;;;;;;;-142.06;100.00;64312.41;5036581;28;20233;-79
2023/12/22 06:08:08;;;;;;;2.60;0.60;;;;;;;-142.06;100.00;64312.41;5057572;28;20190;-77
2023/12/22 06:10:36;;;;;;;3.47;0.70;;;;;;;-142.06;100.00;64312.41;5064621;28;20201;-80
2023/12/22 06:13:04;;;;;;;2.37;0.80;;;;;;;-142.06;100.00;64312.41;5054226;28;20240;-77
2023/12/22 06:15:31;;;;;;;3.47;0.90;;;;;;;-142.06;100.00;64312.41;5064862;28;20193;-79
2023/12/22 06:17:58;;;;;;;2.60;0.83;;;;;;;-142.06;100.00;64312.41;5063285;28;20217;-79
2023/12/22 06:20:26;;;;;;;1.40;0.50;;;;;;;-142.06;100.00;64312.41;5066814;28;20251;-80
2023/12/22 06:22:53;;;;;;;2.47;0.87;;;;;;;-142.06;100.00;64312.41;5053192;28;20201;-79
2023/12/22 06:25:20;;;;;;;1.77;0.70;;;;;;;-142.06;100.00;64312.41;5061069;28;20229;-78
2023/12/22 06:27:46;;;;;;;3.03;0.80;;;;;;;-142.06;100.00;64312.41;5028623;28;20192;-79
2023/12/22 06:30:14;;;;;;;3.07;0.70;;;;;;;-142.06;100.00;64312.41;5047865;28;20291;-80
2023/12/22 06:32:41;;;;;;;1.27;0.60;;;;;;;-142.06;100.00;64312.41;5021449;28;20193;-78
2023/12/22 06:35:09;;;;;;;1.63;0.70;;;;;;;-142.06;100.00;64312.41;5042573;28;20202;-79
2023/12/22 06:37:39;;;;;;;2.60;0.80;;;;;;;-142.06;100.00;64312.41;5038233;28;20673;-79
2023/12/22 06:40:07;;;;;;;1.10;0.47;;;;;;;-142.06;100.00;64312.41;5061752;28;20277;-80
2023/12/22 06:42:33;;;;;;;2.97;0.80;;;;;;;-142.06;100.00;64312.41;5051784;28;20622;-79
2023/12/22 06:45:00;;;;;;;1.63;0.50;;;;;;;-142.06;100.00;64312.41;5059559;28;20662;-80
2023/12/22 06:47:27;;;;;;;1.53;0.50;;;;;;;-142.06;100.00;64312.41;5066396;28;20202;-81
2023/12/22 06:49:54;;;;;;;0.83;0.60;;;;;;;-142.06;100.00;64312.41;5037229;28;20259;-79
2023/12/22 06:52:21;;;;;;;2.37;0.50;;;;;;;-142.06;100.00;64312.41;5037387;28;20216;-79
2023/12/22 06:54:48;;;;;;;2.20;0.70;;;;;;;-142.06;100.00;64312.41;5041051;28;20208;-79
2023/12/22 06:57:16;;;;;;;1.93;0.67;;;;;;;-142.06;100.00;64312.41;5037344;28;20202;-81
2023/12/22 06:59:44;;;;;;;1.20;0.60;;;;;;;-142.06;100.00;64312.41;5022705;28;20214;-81
2023/12/22 07:02:12;;;;;;;1.10;0.40;;;;;;;-142.06;100.00;64312.41;5039989;28;20204;-78
2023/12/22 07:05:22;;;;;;;1.60;0.70;;;;;;;-142.06;100.00;64312.41;5039336;28;20208;-78
2023/12/22 07:07:50;;;;;;;1.97;0.60;;;;;;;-142.06;100.00;64312.41;5052841;28;20197;-80
2023/12/22 07:10:17;;;;;;;1.20;0.50;;;;;;;-142.06;100.00;64312.41;5054721;28;20251;-79
2023/12/22 07:12:44;;;;;;;2.13;0.50;;;;;;;-142.06;100.00;64312.41;5058041;28;20197;-81
2023/12/22 07:15:11;;;;;;;1.20;0.50;;;;;;;-142.06;100.00;64312.41;5036748;28;20229;-79
2023/12/22 07:17:38;;;;;;;2.13;0.50;;;;;;;-142.06;100.00;64312.41;5037210;28;20713;-79
2023/12/22 07:20:05;;;;;;;1.37;0.40;;;;;;;-142.06;100.00;64312.41;5034597;28;20200;-79
2023/12/22 07:22:32;;;;;;;1.20;0.37;;;;;;;-142.06;100.00;64312.41;5036556;28;20219;-78
2023/12/22 07:24:59;;;;;;;1.27;0.40;;;;;;;-142.06;100.00;64312.41;5036717;28;20217;-80
2023/12/22 07:27:26;;;;;;;1.13;0.40;;;;;;;-142.06;100.00;64312.41;5036986;28;20224;-79
2023/12/22 07:29:55;;;;;;;0.70;0.50;;;;;;;-142.06;100.00;64312.41;5053623;28;20206;-79
2023/12/22 07:32:22;;;;;;;0.80;0.30;;;;;;;-142.06;100.00;64312.41;5049396;28;20198;-79
2023/12/22 07:34:49;;;;;;;0.67;0.40;;;;;;;-142.06;100.00;64312.41;5030622;28;20252;-79
2023/12/22 07:37:16;;;;;;;2.57;0.60;;;;;;;-142.06;100.00;64312.41;5053416;28;20240;-78
2023/12/22 07:39:45;;;;;;;2.00;0.53;;;;;;;-142.06;100.00;64312.41;5037096;28;20260;-79
2023/12/22 07:42:11;;;;;;;1.50;0.50;;;;;;;-142.06;100.00;64312.41;5054080;28;20220;-80
2023/12/22 07:44:38;;;;;;;0.60;0.50;;;;;;;-142.06;100.00;64312.41;5071549;28;20293;-79
2023/12/22 07:47:07;;;;;;;0.60;0.30;;;;;;;-142.06;100.00;64312.41;5054208;28;20204;-80
2023/12/22 07:49:34;;;;;;;1.00;0.50;;;;;;;-142.06;100.00;64312.41;5057101;28;20197;-79
2023/12/22 07:52:01;;;;;;;1.63;0.30;;;;;;;-142.06;100.00;64312.41;5037605;28;20192;-79
2023/12/22 07:54:29;;;;;;;0.90;0.40;;;;;;;-142.06;100.00;64312.41;5034217;28;20205;-80
2023/12/22 07:56:56;;;;;;;0.80;0.33;;;;;;;-142.06;100.00;64312.41;5020773;28;20214;-81
2023/12/22 07:59:24;;;;;;;0.97;0.50;;;;;;;-142.06;100.00;64312.41;5020930;28;20221;-80
2023/12/22 08:01:57;;;;;;;1.27;0.70;;;;;;;-142.06;100.00;64312.41;5035009;28;20200;-81
2023/12/22 08:04:24;;;;;;;0.80;0.30;;;;;;;-142.06;100.00;64312.41;5019342;28;20201;-80
2023/12/22 08:06:52;;;;;;;0.87;0.40;;;;;;;-142.06;100.00;64312.41;5052569;28;20209;-79
2023/12/22 08:09:19;;;;;;;1.57;0.40;;;;;;;-142.06;100.00;64312.41;5037241;28;20201;-80
2023/12/22 08:11:47;;;;;;;0.67;0.20;;;;;;;-142.06;100.00;64312.41;5021693;28;20209;-79
2023/12/22 08:14:14;;;;;;;1.27;0.60;;;;;;;-142.06;100.00;64312.41;5041098;28;20255;-79
2023/12/22 08:16:41;;;;;;;0.80;0.20;;;;;;;-142.06;100.00;64312.41;5036235;28;20205;-80
2023/12/22 08:19:08;;;;;;;0.63;0.40;;;;;;;-142.06;100.00;64312.41;5052976;28;20253;-79
2023/12/22 08:21:35;;;;;;;0.80;0.40;;;;;;;-142.06;100.00;64312.41;5037192;28;20237;-79
2023/12/22 08:24:12;;;;;;;1.07;0.40;;;;;;;-142.06;100.00;64312.41;5051832;28;20711;-81
2023/12/22 08:26:49;;;;;;;1.43;0.30;;;;;;;-142.06;100.00;64312.41;5048559;28;20200;-78
2023/12/22 08:29:16;;;;;;;1.00;0.30;;;;;;;-142.06;100.00;64312.41;5036819;28;20185;-80
2023/12/22 08:31:43;;;;;;;0.30;0.30;;;;;;;-142.06;100.00;64312.41;5052328;28;20277;-78
2023/12/22 08:34:11;;;;;;;0.50;0.30;;;;;;;-142.06;100.00;64312.41;5017491;28;20197;-79
2023/12/22 08:36:38;;;;;;;0.70;0.30;;;;;;;-142.06;100.00;64312.41;5020884;28;20736;-79
2023/12/22 08:39:05;;;;;;;1.37;0.50;;;;;;;-142.06;100.00;64312.41;5036025;28;20225;-79
2023/12/22 08:41:37;;;;;;;0.97;0.30;;;;;;;-142.06;100.00;64312.41;5035903;28;20255;-81
2023/12/22 08:44:05;;;;;;;0.80;0.40;;;;;;;-142.06;100.00;64312.41;5036735;28;20300;-78
2023/12/22 08:46:33;;;;;;;0.83;0.33;;;;;;;-142.06;100.00;64312.41;5020615;28;20202;-79
2023/12/22 08:49:00;;;;;;;0.77;0.40;;;;;;;-142.06;100.00;64312.41;5026341;28;20291;-78
2023/12/22 08:51:27;;;;;;;1.13;0.40;;;;;;;-142.06;100.00;64312.41;5019717;28;20215;-80
2023/12/22 08:53:55;;;;;;;1.03;0.40;;;;;;;-142.06;100.00;64312.41;5051011;28;20288;-80
2023/12/22 08:56:22;;;;;;;1.00;0.40;;;;;;;-142.06;100.00;64312.41;5036148;28;20193;-79
2023/12/22 08:58:54;;;;;;;0.90;0.33;;;;;;;-142.06;100.00;64312.41;5045125;28;20206;-79
2023/12/22 09:01:22;;;;;;;0.67;0.40;;;;;;;-142.06;100.00;64312.41;5039882;28;20280;-80
2023/12/22 09:03:49;;;;;;;0.83;0.33;;;;;;;-142.06;100.00;64312.41;5036798;28;20277;-80
2023/12/22 09:06:17;;;;;;;0.67;0.30;;;;;;;-142.06;100.00;64312.41;5027456;28;20206;-79
2023/12/22 09:08:44;;;;;;;1.50;0.50;;;;;;;-142.06;100.00;64312.41;5050489;28;20194;-80
2023/12/22 09:11:12;;;;;;;1.07;0.50;;;;;;;-142.06;100.00;64312.41;5030501;28;20202;-79
2023/12/22 09:13:39;;;;;;;1.20;0.40;;;;;;;-142.06;100.00;64312.41;5036709;28;20205;-79
2023/12/22 09:16:06;;;;;;;1.80;0.50;;;;;;;-142.06;100.00;64312.41;5052709;28;20292;-81
2023/12/22 09:18:33;;;;;;;1.33;0.40;;;;;;;-142.06;100.00;64312.41;5034753;28;20214;-80
2023/12/22 09:21:00;;;;;;;1.53;0.40;;;;;;;-142.06;100.00;64312.41;5012500;28;20259;-79
2023/12/22 09:23:27;;;;;;;1.37;0.40;;;;;;;-142.06;100.00;64312.41;5046342;28;20264;-81
2023/12/22 09:25:54;;;;;;;1.77;0.30;;;;;;;-142.06;100.00;64312.41;5035766;28;20202;-80
2023/12/22 09:28:21;;;;;;;0.83;0.50;;;;;;;-142.06;100.00;64312.41;5035471;28;20205;-80
2023/12/22 09:30:48;;;;;;;1.43;0.50;;;;;;;-142.06;100.00;64312.41;5043454;28;20205;-81
2023/12/22 09:33:15;;;;;;;1.70;0.30;;;;;;;-142.06;100.00;64312.41;5018935;28;20197;-79
2023/12/22 09:35:42;;;;;;;1.37;0.50;;;;;;;-142.06;100.00;64312.41;5051119;28;20233;-78
2023/12/22 09:38:10;;;;;;;2.13;0.63;;;;;;;-142.06;100.00;64312.41;5032469;28;20567;-79
2023/12/22 09:40:38;;;;;;;2.60;0.60;;;;;;;-142.06;100.00;64312.41;5001499;28;20218;-79
2023/12/22 09:43:07;;;;;;;1.67;0.50;;;;;;;-142.06;100.00;64312.41;5056118;28;20198;-79
2023/12/22 09:45:34;;;;;;;1.77;0.50;;;;;;;-142.06;100.00;64312.41;5036243;28;20267;-79
2023/12/22 09:48:01;;;;;;;0.63;0.30;;;;;;;-142.06;100.00;64312.41;5031719;28;20189;-80
2023/12/22 09:50:29;;;;;;;0.97;0.40;;;;;;;-142.06;100.00;64312.41;5039390;28;20198;-79
2023/12/22 09:52:56;;;;;;;1.17;0.40;;;;;;;-142.06;100.00;64312.41;5044845;28;20190;-79
2023/12/22 09:55:25;;;;;;;0.20;0.20;;;;;;;-142.06;100.00;64312.41;5055592;28;20201;-79
2023/12/22 09:57:52;;;;;;;0.70;0.40;;;;;;;-142.06;100.00;64312.41;5033895;28;20493;-79
2023/12/22 10:00:21;;;;;;;2.63;0.47;;;;;;;-142.06;100.00;64312.41;5050683;28;20217;-79
2023/12/22 10:02:48;;;;;;;1.27;0.47;;;;;;;-142.06;100.00;64312.41;5055895;28;20202;-78
2023/12/22 10:05:15;;;;;;;1.40;0.47;;;;;;;-142.06;100.00;64312.41;5042893;28;20206;-80
2023/12/22 10:07:45;;;;;;;0.50;0.30;;;;;;;-142.06;100.00;64312.41;5027686;28;20201;-80
2023/12/22 10:10:12;;;;;;;2.40;0.60;;;;;;;-142.06;100.00;64312.41;5052897;28;20209;-79
2023/12/22 10:12:40;;;;;;;1.50;0.60;;;;;;;-142.06;100.00;64312.41;5062368;28;20276;-79
2023/12/22 10:15:08;;;;;;;0.40;0.40;;;;;;;-142.06;100.00;64312.41;5022250;28;20197;-79
2023/12/22 10:17:36;;;;;;;1.47;0.30;;;;;;;-142.06;100.00;64312.41;5030278;28;20204;-79
2023/12/22 10:20:03;;;;;;;1.47;0.40;;;;;;;-142.06;100.00;64312.41;5038892;28;20247;-79
2023/12/22 10:22:30;;;;;;;1.67;0.40;;;;;;;-142.06;100.00;64312.41;5038507;28;20204;-81
2023/12/22 10:24:57;;;;;;;0.50;0.33;;;;;;;-142.06;100.00;64312.41;5038265;28;20225;-80
2023/12/22 10:27:24;;;;;;;2.23;0.50;;;;;;;-142.06;100.00;64312.41;5023488;28;20251;-79
2023/12/22 10:29:56;;;;;;;1.53;0.30;;;;;;;-142.06;100.00;64312.41;5037042;28;20256;-79
2023/12/22 10:32:23;;;;;;;2.53;0.50;;;;;;;-142.06;100.00;64312.41;5037676;28;20681;-80
2023/12/22 10:34:53;;;;;;;0.67;0.43;;;;;;;-142.06;100.00;64312.41;5022966;28;20197;-80
2023/12/22 10:37:21;;;;;;;0.63;0.30;;;;;;;-142.06;100.00;64312.41;5019709;28;20278;-80
2023/12/22 10:39:55;;;;;;;2.43;0.50;;;;;;;-142.06;100.00;64312.41;5038097;28;20217;-81
2023/12/22 10:42:21;;;;;;;2.33;0.53;;;;;;;-142.06;100.00;64312.41;5021646;28;20309;-79
2023/12/22 10:44:49;;;;;;;1.13;0.40;;;;;;;-142.06;100.00;64312.41;5031199;28;20197;-79
2023/12/22 10:47:21;;;;;;;0.90;0.40;;;;;;;-142.06;100.00;64312.41;5037368;28;20739;-79
2023/12/22 10:49:48;;;;;;;0.70;0.50;;;;;;;-142.06;100.00;64312.41;5036502;28;20284;-79
2023/12/22 10:52:17;;;;;;;0.73;0.40;;;;;;;-142.06;100.00;64312.41;5021746;28;20210;-79
2023/12/22 10:54:45;;;;;;;1.50;0.40;;;;;;;-142.06;100.00;64312.41;5037912;28;20288;-80
2023/12/22 10:57:12;;;;;;;0.97;0.40;;;;;;;-142.06;100.00;64312.41;5037194;28;20195;-79
2023/12/22 10:59:47;;;;;;;0.87;0.33;;;;;;;-142.06;100.00;64312.41;5026109;28;20233;-79
2023/12/22 11:02:28;;;;;;;1.17;0.50;;;;;;;-142.06;100.00;64312.41;5056151;28;20296;-79
2023/12/22 11:05:08;;;;;;;0.70;0.30;;;;;;;-142.06;100.00;64312.41;5038013;28;20220;-80
2023/12/22 11:07:37;;;;;;;0.87;0.30;;;;;;;-142.06;100.00;64312.41;5033022;28;20189;-80
2023/12/22 11:10:08;;;;;;;0.20;0.20;;;;;;;-142.06;100.00;64312.41;5032248;28;20210;-81
2023/12/22 11:12:36;;;;;;;0.70;0.30;;;;;;;-142.06;100.00;64312.41;5057496;28;20192;-82